createdAt,value
2019-03-22T00:00:26.122Z,9.9
2019-03-22T00:01:26.144Z,9.9
2019-03-22T00:02:26.202Z,9.7
2019-03-22T00:03:26.301Z,9.8
2019-03-22T00:04:26.314Z,9.7
2019-03-22T00:05:26.427Z,9.6
2019-03-22T00:06:26.465Z,9.7
2019-03-22T00:07:26.476Z,9.5
2019-03-22T00:08:26.568Z,9.6
2019-03-22T00:09:26.646Z,9.5
2019-03-22T00:10:26.703Z,9.4
2019-03-22T00:11:26.744Z,9.4
2019-03-22T00:12:26.838Z,9.3
2019-03-22T00:13:26.870Z,9.5
2019-03-22T00:14:26.935Z,9.5
2019-03-22T00:15:27.383Z,9.7
2019-03-22T00:16:27.078Z,9.8
2019-03-22T00:17:27.187Z,9.9
2019-03-22T00:18:27.199Z,9.9
2019-03-22T00:19:27.280Z,9.8
2019-03-22T00:20:27.310Z,9.7
2019-03-22T00:21:27.407Z,9.6
2019-03-22T00:22:27.435Z,9.5
2019-03-22T00:23:27.526Z,9.6
2019-03-22T00:24:27.568Z,9.6
2019-03-22T00:25:27.620Z,9.5
2019-03-22T00:26:27.647Z,9.3
2019-03-22T00:27:27.707Z,9.3
2019-03-22T00:28:27.753Z,9.2
2019-03-22T00:29:27.821Z,9.2
2019-03-22T00:30:27.880Z,9.1
2019-03-22T00:31:27.884Z,9.1
2019-03-22T00:32:27.927Z,9
2019-03-22T00:33:27.991Z,9
2019-03-22T00:34:28.078Z,9
2019-03-22T00:35:28.185Z,8.9
2019-03-22T00:36:28.197Z,8.9
2019-03-22T00:37:28.237Z,9
2019-03-22T00:38:28.284Z,9
2019-03-22T00:39:28.367Z,9
2019-03-22T00:40:28.436Z,9
2019-03-22T00:41:28.484Z,9
2019-03-22T00:42:28.544Z,9.1
2019-03-22T00:43:28.633Z,9.1
2019-03-22T00:44:28.681Z,9.2
2019-03-22T00:45:28.813Z,9.2
2019-03-22T00:46:28.769Z,9.1
2019-03-22T00:47:28.808Z,9.2
2019-03-22T00:48:28.894Z,9
2019-03-22T00:49:28.957Z,9.1
2019-03-22T00:50:29.003Z,9.1
2019-03-22T00:51:29.047Z,9
2019-03-22T00:52:29.108Z,9
2019-03-22T00:53:29.197Z,9
2019-03-22T00:54:29.260Z,9.2
2019-03-22T00:55:29.341Z,9.2
2019-03-22T00:56:29.493Z,9.1
2019-03-22T00:57:29.463Z,9.2
2019-03-22T00:58:29.496Z,9.3
2019-03-22T00:59:29.773Z,9.3
2019-03-22T01:00:29.856Z,9.3
2019-03-22T01:01:29.885Z,9
2019-03-22T01:02:29.786Z,9.1
2019-03-22T01:03:30.064Z,9.2
2019-03-22T01:04:30.163Z,9
2019-03-22T01:05:29.929Z,9
2019-03-22T01:06:30.131Z,9
2019-03-22T01:07:30.021Z,8.9
2019-03-22T01:08:30.099Z,9
2019-03-22T01:09:30.238Z,9.1
2019-03-22T01:10:30.296Z,9
2019-03-22T01:11:30.291Z,8.9
2019-03-22T01:12:30.395Z,9
2019-03-22T01:13:30.389Z,9.2
2019-03-22T01:14:30.640Z,9.2
2019-03-22T01:15:30.699Z,9.3
2019-03-22T01:16:30.586Z,9.1
2019-03-22T01:17:30.668Z,9.1
2019-03-22T01:18:30.686Z,9.1
2019-03-22T01:19:30.757Z,9
2019-03-22T01:20:30.775Z,8.9
2019-03-22T01:21:30.807Z,8.9
2019-03-22T01:22:30.903Z,8.9
2019-03-22T01:23:30.975Z,8.8
2019-03-22T01:24:31.081Z,8.6
2019-03-22T01:25:31.159Z,8.7
2019-03-22T01:26:31.211Z,8.9
2019-03-22T01:27:39.752Z,9.1
2019-03-22T01:28:31.303Z,9.1
2019-03-22T01:29:31.332Z,9.2
2019-03-22T01:30:31.476Z,9
2019-03-22T01:31:31.523Z,8.9
2019-03-22T01:32:31.521Z,9
2019-03-22T01:33:31.597Z,8.9
2019-03-22T01:34:31.624Z,8.9
2019-03-22T01:35:31.683Z,9
2019-03-22T01:36:31.764Z,9
2019-03-22T01:37:31.814Z,8.9
2019-03-22T01:38:31.896Z,9.1
2019-03-22T01:39:31.966Z,8.9
2019-03-22T01:40:32.006Z,8.8
2019-03-22T01:41:32.105Z,8.9
2019-03-22T01:42:32.095Z,8.7
2019-03-22T01:43:32.216Z,8.8
2019-03-22T01:44:32.215Z,8.7
2019-03-22T01:45:32.599Z,8.8
2019-03-22T01:46:32.847Z,8.7
2019-03-22T01:47:32.410Z,8.5
2019-03-22T01:48:32.460Z,8.5
2019-03-22T01:49:32.578Z,8.5
2019-03-22T01:50:32.603Z,8.6
2019-03-22T01:51:32.649Z,8.6
2019-03-22T01:52:32.756Z,8.7
2019-03-22T01:53:32.854Z,8.5
2019-03-22T01:54:32.819Z,8.6
2019-03-22T01:55:32.925Z,8.5
2019-03-22T01:56:32.927Z,8.4
2019-03-22T01:57:33.010Z,8.5
2019-03-22T01:58:33.037Z,8.5
2019-03-22T01:59:33.047Z,8.5
2019-03-22T02:00:33.199Z,8.7
2019-03-22T02:01:33.184Z,8.5
2019-03-22T02:02:33.261Z,8.5
2019-03-22T02:03:33.326Z,8.5
2019-03-22T02:04:33.366Z,8.5
2019-03-22T02:05:33.394Z,8.7
2019-03-22T02:06:33.463Z,8.5
2019-03-22T02:07:33.527Z,8.5
2019-03-22T02:08:33.537Z,8.5
2019-03-22T02:09:33.608Z,8.5
2019-03-22T02:10:33.654Z,8.3
2019-03-22T02:11:33.798Z,8.4
2019-03-22T02:12:33.804Z,8.4
2019-03-22T02:13:33.838Z,8.3
2019-03-22T02:14:33.933Z,8.4
2019-03-22T02:15:33.978Z,8.3
2019-03-22T02:16:34.044Z,8.3
2019-03-22T02:17:34.025Z,8.3
2019-03-22T02:18:34.089Z,8.3
2019-03-22T02:19:34.106Z,8.3
2019-03-22T02:20:34.148Z,8.3
2019-03-22T02:21:34.211Z,8.3
2019-03-22T02:22:34.270Z,8.2
2019-03-22T02:23:34.324Z,8.1
2019-03-22T02:24:34.379Z,8.1
2019-03-22T02:25:34.550Z,8.1
2019-03-22T02:26:34.503Z,8.1
2019-03-22T02:27:34.867Z,8.1
2019-03-22T02:28:34.607Z,8.1
2019-03-22T02:29:34.894Z,8.3
2019-03-22T02:30:35.511Z,8.5
2019-03-22T02:31:34.773Z,8.4
2019-03-22T02:32:34.844Z,8.5
2019-03-22T02:33:34.894Z,8.6
2019-03-22T02:34:35.432Z,8.5
2019-03-22T02:35:34.962Z,8.2
2019-03-22T02:36:35.034Z,8.2
2019-03-22T02:37:35.076Z,8.2
2019-03-22T02:38:35.152Z,8.1
2019-03-22T02:39:35.386Z,8.1
2019-03-22T02:40:35.293Z,8.2
2019-03-22T02:41:35.334Z,8.3
2019-03-22T02:42:35.357Z,8.2
2019-03-22T02:43:35.453Z,8.3
2019-03-22T02:44:35.471Z,8.2
2019-03-22T02:45:35.575Z,8
2019-03-22T02:46:35.753Z,8
2019-03-22T02:47:35.712Z,7.8
2019-03-22T02:48:35.711Z,7.9
2019-03-22T02:49:35.787Z,7.8
2019-03-22T02:50:35.827Z,7.8
2019-03-22T02:51:35.920Z,7.8
2019-03-22T02:52:35.999Z,7.8
2019-03-22T02:53:36.073Z,7.9
2019-03-22T02:54:36.169Z,7.7
2019-03-22T02:55:36.178Z,7.8
2019-03-22T02:56:36.420Z,7.8
2019-03-22T02:57:36.373Z,7.9
2019-03-22T02:58:36.391Z,7.9
2019-03-22T02:59:36.419Z,7.8
2019-03-22T03:00:36.502Z,7.8
2019-03-22T03:01:36.544Z,7.9
2019-03-22T03:02:36.613Z,7.8
2019-03-22T03:03:36.838Z,7.7
2019-03-22T03:04:36.830Z,7.9
2019-03-22T03:05:36.806Z,7.9
2019-03-22T03:06:37.813Z,7.9
2019-03-22T03:07:36.903Z,7.9
2019-03-22T03:08:36.954Z,7.9
2019-03-22T03:09:36.996Z,8
2019-03-22T03:10:37.026Z,8
2019-03-22T03:11:37.090Z,7.9
2019-03-22T03:12:37.226Z,7.9
2019-03-22T03:13:37.276Z,7.7
2019-03-22T03:14:37.316Z,7.6
2019-03-22T03:15:37.443Z,7.6
2019-03-22T03:16:37.415Z,7.9
2019-03-22T03:17:37.455Z,7.8
2019-03-22T03:18:37.527Z,7.8
2019-03-22T03:19:37.569Z,7.7
2019-03-22T03:20:37.662Z,7.6
2019-03-22T03:21:37.723Z,7.5
2019-03-22T03:22:37.739Z,7.5
2019-03-22T03:23:37.847Z,7.5
2019-03-22T03:24:37.878Z,7.5
2019-03-22T03:25:37.963Z,7.5
2019-03-22T03:26:38.035Z,7.6
2019-03-22T03:27:38.184Z,7.7
2019-03-22T03:28:38.188Z,7.7
2019-03-22T03:29:38.194Z,7.8
2019-03-22T03:30:38.349Z,7.9
2019-03-22T03:31:38.410Z,7.9
2019-03-22T03:32:38.357Z,7.9
2019-03-22T03:33:38.421Z,7.8
2019-03-22T03:34:38.487Z,7.9
2019-03-22T03:35:38.501Z,8
2019-03-22T03:36:38.600Z,8
2019-03-22T03:37:38.646Z,7.9
2019-03-22T03:38:38.698Z,7.9
2019-03-22T03:39:38.775Z,7.9
2019-03-22T03:40:38.815Z,7.8
2019-03-22T03:41:38.847Z,7.7
2019-03-22T03:42:38.889Z,7.8
2019-03-22T03:43:38.978Z,7.8
2019-03-22T03:44:39.013Z,7.7
2019-03-22T03:45:39.099Z,7.9
2019-03-22T03:46:39.137Z,7.7
2019-03-22T03:47:39.290Z,7.9
2019-03-22T03:48:39.262Z,7.8
2019-03-22T03:49:39.314Z,7.6
2019-03-22T03:50:39.363Z,7.6
2019-03-22T03:51:39.409Z,7.6
2019-03-22T03:52:39.765Z,7.7
2019-03-22T03:53:39.534Z,7.7
2019-03-22T03:54:39.612Z,7.6
2019-03-22T03:55:39.667Z,7.6
2019-03-22T03:56:39.688Z,7.7
2019-03-22T03:57:39.746Z,7.7
2019-03-22T03:58:51.440Z,7.8
2019-03-22T03:59:39.901Z,7.8
2019-03-22T04:00:40.026Z,7.9
2019-03-22T04:01:40.031Z,7.9
2019-03-22T04:02:40.102Z,7.9
2019-03-22T04:03:40.142Z,7.8
2019-03-22T04:04:40.197Z,7.7
2019-03-22T04:05:40.236Z,7.5
2019-03-22T04:06:40.707Z,7.5
2019-03-22T04:07:40.497Z,7.6
2019-03-22T04:08:40.643Z,7.6
2019-03-22T04:09:40.820Z,7.5
2019-03-22T04:10:40.527Z,7.6
2019-03-22T04:11:40.592Z,7.6
2019-03-22T04:12:40.771Z,7.7
2019-03-22T04:13:40.728Z,7.6
2019-03-22T04:14:41.746Z,7.6
2019-03-22T04:15:40.860Z,7.7
2019-03-22T04:16:41.383Z,7.6
2019-03-22T04:17:40.943Z,7.7
2019-03-22T04:18:41.044Z,7.7
2019-03-22T04:19:41.006Z,7.7
2019-03-22T04:20:41.769Z,7.6
2019-03-22T04:21:41.162Z,7.6
2019-03-22T04:22:41.252Z,7.7
2019-03-22T04:23:41.260Z,7.8
2019-03-22T04:24:41.336Z,7.8
2019-03-22T04:25:42.494Z,7.8
2019-03-22T04:26:41.864Z,7.8
2019-03-22T04:27:41.522Z,7.8
2019-03-22T04:28:41.540Z,7.9
2019-03-22T04:29:41.701Z,7.9
2019-03-22T04:30:41.719Z,7.8
2019-03-22T04:31:41.722Z,7.8
2019-03-22T04:32:42.298Z,7.9
2019-03-22T04:33:41.846Z,7.8
2019-03-22T04:34:41.883Z,7.9
2019-03-22T04:35:42.554Z,8
2019-03-22T04:36:42.049Z,7.8
2019-03-22T04:37:42.033Z,7.8
2019-03-22T04:38:42.295Z,7.7
2019-03-22T04:39:42.402Z,7.8
2019-03-22T04:40:42.517Z,7.8
2019-03-22T04:41:43.175Z,7.8
2019-03-22T04:42:42.567Z,7.7
2019-03-22T04:43:43.116Z,7.8
2019-03-22T04:44:42.718Z,7.8
2019-03-22T04:45:42.739Z,7.9
2019-03-22T04:46:43.540Z,7.8
2019-03-22T04:47:42.660Z,7.7
2019-03-22T04:48:43.101Z,7.7
2019-03-22T04:49:42.799Z,7.7
2019-03-22T04:50:43.270Z,7.7
2019-03-22T04:51:43.082Z,7.7
2019-03-22T04:52:43.620Z,7.7
2019-03-22T04:53:43.521Z,7.8
2019-03-22T04:54:43.105Z,7.7
2019-03-22T04:55:43.893Z,7.7
2019-03-22T04:56:44.120Z,7.7
2019-03-22T04:57:43.287Z,7.8
2019-03-22T04:58:46.530Z,7.7
2019-03-22T04:59:43.389Z,7.7
2019-03-22T05:00:44.836Z,7.7
2019-03-22T05:01:44.571Z,7.5
2019-03-22T05:02:44.885Z,7.3
2019-03-22T05:03:44.891Z,7.3
2019-03-22T05:04:44.111Z,7.3
2019-03-22T05:05:45.370Z,7.4
2019-03-22T05:06:45.558Z,7.4
2019-03-22T05:07:45.730Z,7.3
2019-03-22T05:08:45.841Z,7.2
2019-03-22T05:09:46.033Z,7.1
2019-03-22T05:10:46.058Z,7.3
2019-03-22T05:11:44.390Z,7.2
2019-03-22T05:12:46.782Z,7.3
2019-03-22T05:13:44.228Z,7.3
2019-03-22T05:14:46.027Z,7.3
2019-03-22T05:15:45.910Z,7.3
2019-03-22T05:16:44.404Z,7.2
2019-03-22T05:17:44.653Z,7.1
2019-03-22T05:18:44.931Z,7.2
2019-03-22T05:19:47.643Z,7.2
2019-03-22T05:20:44.657Z,7.2
2019-03-22T05:21:44.727Z,7.1
2019-03-22T05:22:44.772Z,7.1
2019-03-22T05:23:44.854Z,7.1
2019-03-22T05:24:44.916Z,7
2019-03-22T05:25:44.947Z,7.2
2019-03-22T05:26:45.070Z,7.2
2019-03-22T05:27:45.206Z,7.2
2019-03-22T05:28:45.124Z,7.1
2019-03-22T05:29:45.182Z,7.1
2019-03-22T05:30:45.274Z,7.3
2019-03-22T05:31:45.272Z,7.3
2019-03-22T05:32:45.361Z,7
2019-03-22T05:33:45.402Z,7
2019-03-22T05:34:45.454Z,7
2019-03-22T05:35:45.499Z,6.9
2019-03-22T05:36:45.535Z,6.8
2019-03-22T05:37:45.584Z,6.8
2019-03-22T05:38:45.677Z,6.9
2019-03-22T05:39:45.727Z,7.1
2019-03-22T05:40:45.760Z,7.1
2019-03-22T05:41:45.810Z,7.1
2019-03-22T05:42:45.902Z,7
2019-03-22T05:43:45.926Z,7
2019-03-22T05:44:45.986Z,7.1
2019-03-22T05:45:46.051Z,7.1
2019-03-22T05:46:46.083Z,7
2019-03-22T05:47:46.130Z,7
2019-03-22T05:48:46.166Z,7
2019-03-22T05:49:46.242Z,7.1
2019-03-22T05:50:46.315Z,7
2019-03-22T05:51:46.323Z,7.2
2019-03-22T05:52:46.379Z,7.3
2019-03-22T05:53:46.420Z,7.2
2019-03-22T05:54:46.433Z,7.2
2019-03-22T05:55:46.541Z,7.1
2019-03-22T05:56:46.543Z,7.1
2019-03-22T05:57:46.596Z,7.1
2019-03-22T05:58:46.673Z,7.1
2019-03-22T05:59:46.747Z,7.1
2019-03-22T06:00:46.836Z,7
2019-03-22T06:01:46.887Z,7
2019-03-22T06:02:46.875Z,7.1
2019-03-22T06:03:46.966Z,7
2019-03-22T06:04:46.984Z,7
2019-03-22T06:05:47.056Z,7
2019-03-22T06:06:47.224Z,7.1
2019-03-22T06:07:47.189Z,7.1
2019-03-22T06:08:47.214Z,7.1
2019-03-22T06:09:47.274Z,7
2019-03-22T06:10:47.338Z,7
2019-03-22T06:11:47.411Z,7
2019-03-22T06:12:47.453Z,7.1
2019-03-22T06:13:47.505Z,7.1
2019-03-22T06:14:47.752Z,7.3
2019-03-22T06:15:47.677Z,7.3
2019-03-22T06:16:47.662Z,7.3
2019-03-22T06:17:51.777Z,7.3
2019-03-22T06:18:50.191Z,7.3
2019-03-22T06:19:48.321Z,7.3
2019-03-22T06:20:47.891Z,7.3
2019-03-22T06:21:47.939Z,7.3
2019-03-22T06:22:47.987Z,7.3
2019-03-22T06:23:48.104Z,7.4
2019-03-22T06:24:48.135Z,7.3
2019-03-22T06:25:48.197Z,7.3
2019-03-22T06:26:48.263Z,7.3
2019-03-22T06:27:48.328Z,7.2
2019-03-22T06:28:48.379Z,7.1
2019-03-22T06:29:53.911Z,7.1
2019-03-22T06:30:48.532Z,7.3
2019-03-22T06:31:48.497Z,7.3
2019-03-22T06:32:48.567Z,7.3
2019-03-22T06:33:48.657Z,7.3
2019-03-22T06:34:48.729Z,7.4
2019-03-22T06:35:48.796Z,7.5
2019-03-22T06:36:48.826Z,7.6
2019-03-22T06:37:48.873Z,7.5
2019-03-22T06:38:48.958Z,7.6
2019-03-22T06:39:49.108Z,7.6
2019-03-22T06:40:49.048Z,7.7
2019-03-22T06:41:49.118Z,7.8
2019-03-22T06:42:49.205Z,7.9
2019-03-22T06:43:49.288Z,8
2019-03-22T06:44:49.323Z,8.1
2019-03-22T06:45:49.392Z,7.9
2019-03-22T06:46:49.509Z,7.9
2019-03-22T06:47:49.601Z,8
2019-03-22T06:48:49.518Z,8
2019-03-22T06:49:49.582Z,8.1
2019-03-22T06:50:49.963Z,8.1
2019-03-22T06:51:49.872Z,8.1
2019-03-22T06:52:51.934Z,8.3
2019-03-22T06:53:49.813Z,8.4
2019-03-22T06:54:49.873Z,8.3
2019-03-22T06:55:49.963Z,8.3
2019-03-22T06:56:49.981Z,8.3
2019-03-22T06:57:50.213Z,8.3
2019-03-22T06:58:50.178Z,8.5
2019-03-22T06:59:50.237Z,8.5
2019-03-22T07:00:50.323Z,8.6
2019-03-22T07:01:50.459Z,8.7
2019-03-22T07:02:50.339Z,8.8
2019-03-22T07:03:50.427Z,8.8
2019-03-22T07:04:50.491Z,9
2019-03-22T07:05:50.587Z,9.1
2019-03-22T07:06:50.577Z,9.3
2019-03-22T07:07:50.704Z,9.5
2019-03-22T07:08:50.688Z,9.5
2019-03-22T07:09:50.784Z,9.5
2019-03-22T07:10:50.857Z,9.5
2019-03-22T07:11:50.904Z,9.4
2019-03-22T07:12:53.751Z,9.5
2019-03-22T07:13:51.009Z,9.6
2019-03-22T07:14:51.192Z,9.8
2019-03-22T07:15:51.418Z,10
2019-03-22T07:16:51.241Z,10.2
2019-03-22T07:17:51.291Z,10.1
2019-03-22T07:18:51.439Z,10.1
2019-03-22T07:19:51.384Z,10.4
2019-03-22T07:20:51.545Z,10.6
2019-03-22T07:21:51.919Z,10.3
2019-03-22T07:22:51.896Z,10.2
2019-03-22T07:23:55.817Z,10.3
2019-03-22T07:24:51.871Z,10.3
2019-03-22T07:25:51.870Z,10.4
2019-03-22T07:26:55.845Z,10.5
2019-03-22T07:27:51.922Z,10.8
2019-03-22T07:28:51.864Z,10.7
2019-03-22T07:29:51.938Z,10.7
2019-03-22T07:30:52.032Z,11
2019-03-22T07:31:52.022Z,11.1
2019-03-22T07:32:52.348Z,11.2
2019-03-22T07:33:53.203Z,11.4
2019-03-22T07:34:52.856Z,11.2
2019-03-22T07:35:52.323Z,11.4
2019-03-22T07:36:52.757Z,12
2019-03-22T07:37:52.628Z,11.8
2019-03-22T07:38:52.837Z,11.6
2019-03-22T07:39:53.439Z,11.4
2019-03-22T07:40:52.930Z,11.2
2019-03-22T07:41:55.210Z,11.1
2019-03-22T07:42:53.696Z,11.3
2019-03-22T07:43:54.790Z,11.2
2019-03-22T07:44:53.996Z,10.9
2019-03-22T07:45:53.230Z,11.2
2019-03-22T07:46:53.111Z,11.1
2019-03-22T07:47:52.980Z,11.2
2019-03-22T07:48:55.643Z,11
2019-03-22T07:49:53.097Z,11
2019-03-22T07:50:53.629Z,11.2
2019-03-22T07:51:53.245Z,11.1
2019-03-22T07:52:53.745Z,11.3
2019-03-22T07:53:54.655Z,11.5
2019-03-22T07:54:54.877Z,11.7
2019-03-22T07:55:53.895Z,11.6
2019-03-22T07:56:54.788Z,11.5
2019-03-22T07:57:55.304Z,11.7
2019-03-22T07:58:53.778Z,11.7
2019-03-22T07:59:53.798Z,11.9
2019-03-22T08:00:54.352Z,12
2019-03-22T08:01:55.014Z,12
2019-03-22T08:02:53.996Z,11.8
2019-03-22T08:03:54.459Z,11.9
2019-03-22T08:04:55.213Z,12.4
2019-03-22T08:05:57.313Z,12.7
2019-03-22T08:06:54.163Z,12.5
2019-03-22T08:07:56.083Z,12.5
2019-03-22T08:08:54.271Z,12.3
2019-03-22T08:09:54.549Z,12.2
2019-03-22T08:10:55.191Z,12.3
2019-03-22T08:11:55.016Z,12.1
2019-03-22T08:12:57.157Z,12.1
2019-03-22T08:13:54.646Z,12.3
2019-03-22T08:14:54.965Z,12.7
2019-03-22T08:15:57.435Z,12.8
2019-03-22T08:16:56.028Z,12.9
2019-03-22T08:17:56.963Z,13.1
2019-03-22T08:18:54.966Z,12.9
2019-03-22T08:19:57.131Z,12.9
2019-03-22T08:20:54.959Z,12.9
2019-03-22T08:21:55.081Z,13
2019-03-22T08:22:55.131Z,13
2019-03-22T08:23:55.043Z,13.2
2019-03-22T08:24:55.052Z,13.1
2019-03-22T08:25:55.140Z,13
2019-03-22T08:26:55.189Z,13.3
2019-03-22T08:27:55.221Z,13.2
2019-03-22T08:28:55.241Z,13.3
2019-03-22T08:29:55.356Z,13.1
2019-03-22T08:30:55.472Z,13.3
2019-03-22T08:31:55.556Z,13.5
2019-03-22T08:32:55.521Z,13.5
2019-03-22T08:33:55.599Z,13.7
2019-03-22T08:34:55.655Z,13.7
2019-03-22T08:35:55.720Z,14.1
2019-03-22T08:36:55.786Z,14.6
2019-03-22T08:37:55.870Z,14.6
2019-03-22T08:38:55.951Z,14.5
2019-03-22T08:39:56.123Z,14.4
2019-03-22T08:40:56.053Z,14.1
2019-03-22T08:41:56.109Z,14
2019-03-22T08:42:56.122Z,13.9
2019-03-22T08:43:56.206Z,14
2019-03-22T08:44:56.253Z,13.8
2019-03-22T08:45:56.509Z,13.8
2019-03-22T08:46:56.354Z,14
2019-03-22T08:47:56.874Z,14.5
2019-03-22T08:48:56.624Z,14.6
2019-03-22T08:49:56.655Z,14.4
2019-03-22T08:50:56.564Z,14.9
2019-03-22T08:51:56.645Z,15.1
2019-03-22T08:52:56.728Z,15.2
2019-03-22T08:53:56.737Z,14.7
2019-03-22T08:54:56.785Z,14.6
2019-03-22T08:55:56.850Z,14.5
2019-03-22T08:56:56.900Z,14.7
2019-03-22T08:57:57.015Z,14.8
2019-03-22T08:58:57.084Z,15.3
2019-03-22T08:59:57.096Z,14.9
2019-03-22T09:00:58.162Z,14.9
2019-03-22T09:01:57.182Z,15.5
2019-03-22T09:02:57.276Z,15.5
2019-03-22T09:03:57.304Z,15.6
2019-03-22T09:04:57.370Z,15.8
2019-03-22T09:05:57.403Z,15.4
2019-03-22T09:06:58.971Z,15.2
2019-03-22T09:07:57.582Z,15.1
2019-03-22T09:08:57.671Z,15.2
2019-03-22T09:09:57.749Z,15.9
2019-03-22T09:10:57.752Z,16.1
2019-03-22T09:11:57.798Z,15.7
2019-03-22T09:12:57.839Z,15.7
2019-03-22T09:13:57.924Z,16.6
2019-03-22T09:14:57.983Z,16.6
2019-03-22T09:15:58.577Z,16.9
2019-03-22T09:16:58.614Z,16.6
2019-03-22T09:17:58.137Z,16.7
2019-03-22T09:18:58.166Z,16.7
2019-03-22T09:19:58.271Z,16.6
2019-03-22T09:20:58.413Z,16.7
2019-03-22T09:21:59.564Z,16.6
2019-03-22T09:22:58.404Z,16.5
2019-03-22T09:23:58.716Z,16.6
2019-03-22T09:24:58.550Z,16.3
2019-03-22T09:25:58.565Z,16
2019-03-22T09:26:58.707Z,15.9
2019-03-22T09:27:58.675Z,16
2019-03-22T09:28:58.693Z,16.3
2019-03-22T09:29:58.713Z,16.2
2019-03-22T09:31:09.735Z,16.7
2019-03-22T09:31:58.875Z,16.7
2019-03-22T09:32:58.885Z,16.8
2019-03-22T09:33:59.012Z,17
2019-03-22T09:34:59.843Z,16.8
2019-03-22T09:35:59.064Z,16.6
2019-03-22T09:36:59.118Z,16.6
2019-03-22T09:38:11.952Z,16.8
2019-03-22T09:38:59.236Z,17.4
2019-03-22T09:39:59.275Z,17.2
2019-03-22T09:40:59.311Z,17.6
2019-03-22T09:42:03.405Z,17.7
2019-03-22T09:42:59.424Z,17.8
2019-03-22T09:43:59.475Z,17.4
2019-03-22T09:44:59.585Z,17.5
2019-03-22T09:45:59.667Z,17.3
2019-03-22T09:46:59.696Z,17.1
2019-03-22T09:47:59.812Z,17
2019-03-22T09:48:59.757Z,16.8
2019-03-22T09:49:59.846Z,16.9
2019-03-22T09:50:59.868Z,17.1
2019-03-22T09:51:59.919Z,17.1
2019-03-22T09:53:00.056Z,16.9
2019-03-22T09:54:00.111Z,16.9
2019-03-22T09:55:12.412Z,16.7
2019-03-22T09:56:00.695Z,16.5
2019-03-22T09:57:00.586Z,16.7
2019-03-22T09:58:00.610Z,16.9
2019-03-22T09:59:00.652Z,16.9
2019-03-22T10:00:00.587Z,16.7
2019-03-22T10:01:00.666Z,16.8
2019-03-22T10:02:00.569Z,16.8
2019-03-22T10:03:00.634Z,17.1
2019-03-22T10:04:00.741Z,16.9
2019-03-22T10:05:00.789Z,16.8
2019-03-22T10:06:00.751Z,16.9
2019-03-22T10:07:00.863Z,16.8
2019-03-22T10:08:00.893Z,16.5
2019-03-22T10:09:03.970Z,16.4
2019-03-22T10:10:01.088Z,16.5
2019-03-22T10:11:01.107Z,16.5
2019-03-22T10:12:09.267Z,16.5
2019-03-22T10:13:01.252Z,16.6
2019-03-22T10:14:01.425Z,16.6
2019-03-22T10:15:01.380Z,17
2019-03-22T10:16:01.451Z,17
2019-03-22T10:17:01.481Z,17
2019-03-22T10:18:01.561Z,17
2019-03-22T10:19:01.613Z,17
2019-03-22T10:20:01.647Z,17.1
2019-03-22T10:21:01.811Z,17.1
2019-03-22T10:22:01.847Z,17
2019-03-22T10:23:01.845Z,17
2019-03-22T10:24:01.890Z,17.2
2019-03-22T10:25:02.023Z,17.3
2019-03-22T10:26:02.031Z,17.4
2019-03-22T10:27:05.059Z,17.5
2019-03-22T10:28:02.131Z,17.8
2019-03-22T10:29:02.165Z,17.8
2019-03-22T10:30:02.312Z,17.8
2019-03-22T10:31:02.331Z,17.9
2019-03-22T10:32:02.359Z,17.7
2019-03-22T10:33:02.405Z,17.8
2019-03-22T10:34:02.460Z,17.9
2019-03-22T10:35:02.527Z,17.9
2019-03-22T10:36:02.611Z,17.8
2019-03-22T10:37:02.674Z,17.8
2019-03-22T10:38:04.709Z,17.8
2019-03-22T10:39:02.766Z,17.8
2019-03-22T10:40:02.863Z,18
2019-03-22T10:41:02.859Z,18.3
2019-03-22T10:42:07.290Z,18.3
2019-03-22T10:43:02.943Z,18.4
2019-03-22T10:44:03.080Z,18.3
2019-03-22T10:45:03.072Z,18.4
2019-03-22T10:46:03.446Z,18.3
2019-03-22T10:47:03.175Z,18.3
2019-03-22T10:48:03.318Z,18.5
2019-03-22T10:49:03.292Z,18.8
2019-03-22T10:50:03.334Z,18.8
2019-03-22T10:51:03.412Z,19
2019-03-22T10:52:04.663Z,18.9
2019-03-22T10:53:03.558Z,18.7
2019-03-22T10:54:03.532Z,26.1
2019-03-22T10:55:17.710Z,18.9
2019-03-22T10:56:03.623Z,19
2019-03-22T10:57:03.723Z,18.9
2019-03-22T10:58:03.787Z,18.8
2019-03-22T10:59:03.785Z,18.8
2019-03-22T11:00:03.916Z,26.1
2019-03-22T11:01:03.879Z,18.8
2019-03-22T11:02:05.175Z,18.8
2019-03-22T11:03:04.027Z,18.8
2019-03-22T11:05:04.155Z,18.6
2019-03-22T11:06:04.240Z,18.6
2019-03-22T11:07:04.316Z,18.7
2019-03-22T11:08:04.361Z,18.7
2019-03-22T11:09:04.382Z,18.9
2019-03-22T11:10:04.461Z,18.9
2019-03-22T11:11:04.566Z,18.8
2019-03-22T11:12:11.781Z,19
2019-03-22T11:13:04.635Z,18.9
2019-03-22T11:14:04.683Z,19.1
2019-03-22T11:15:04.742Z,18.8
2019-03-22T11:16:04.763Z,18.8
2019-03-22T11:17:04.857Z,18.8
2019-03-22T11:18:04.867Z,18.5
2019-03-22T11:19:04.937Z,18.4
2019-03-22T11:20:05.015Z,18.5
2019-03-22T11:21:05.655Z,18.5
2019-03-22T11:22:05.109Z,18.2
2019-03-22T11:23:05.157Z,18.3
2019-03-22T11:24:05.244Z,18.3
2019-03-22T11:25:05.297Z,18.6
2019-03-22T11:26:05.331Z,18.5
2019-03-22T11:27:05.408Z,18.7
2019-03-22T11:28:05.425Z,18.7
2019-03-22T11:29:05.457Z,18.7
2019-03-22T11:30:05.584Z,18.6
2019-03-22T11:31:05.597Z,18.6
2019-03-22T11:32:12.433Z,18.6
2019-03-22T11:33:05.721Z,18.7
2019-03-22T11:34:05.786Z,18.8
2019-03-22T11:35:05.849Z,18.8
2019-03-22T11:36:05.895Z,18.9
2019-03-22T11:37:07.666Z,19
2019-03-22T11:38:05.987Z,18.9
2019-03-22T11:39:14.892Z,18.8
2019-03-22T11:40:06.113Z,18.8
2019-03-22T11:41:06.157Z,18.8
2019-03-22T11:42:06.198Z,18.9
2019-03-22T11:43:08.767Z,19.1
2019-03-22T11:44:06.593Z,19
2019-03-22T11:45:06.486Z,18.9
2019-03-22T11:46:06.462Z,19
2019-03-22T11:47:06.491Z,18.9
2019-03-22T11:48:06.558Z,19
2019-03-22T11:49:06.686Z,19.1
2019-03-22T11:50:06.682Z,18.9
2019-03-22T11:51:06.715Z,19.2
2019-03-22T11:52:06.779Z,19.1
2019-03-22T11:53:06.882Z,19.2
2019-03-22T11:54:06.909Z,19.2
2019-03-22T11:55:06.946Z,19.2
2019-03-22T11:56:07.013Z,19.2
2019-03-22T11:57:07.075Z,19.3
2019-03-22T11:58:07.137Z,19.2
2019-03-22T11:59:07.236Z,19.1
2019-03-22T12:00:07.241Z,19.2
2019-03-22T12:01:07.308Z,19.3
2019-03-22T12:02:07.350Z,19.3
2019-03-22T12:03:07.406Z,19.3
2019-03-22T12:04:07.495Z,19.3
2019-03-22T12:05:07.543Z,19.2
2019-03-22T12:06:07.618Z,19.2
2019-03-22T12:07:07.642Z,19.3
2019-03-22T12:08:07.717Z,19.7
2019-03-22T12:09:07.821Z,19.8
2019-03-22T12:10:07.886Z,19.6
2019-03-22T12:11:07.918Z,19.6
2019-03-22T12:12:07.943Z,19.5
2019-03-22T12:13:08.022Z,19.4
2019-03-22T12:14:08.089Z,19.4
2019-03-22T12:15:08.256Z,19.4
2019-03-22T12:16:08.169Z,19.2
2019-03-22T12:17:08.238Z,26.6
2019-03-22T12:18:08.283Z,19.1
2019-03-22T12:19:08.391Z,19
2019-03-22T12:20:08.691Z,19.2
2019-03-22T12:21:08.481Z,19.4
2019-03-22T12:22:08.534Z,19.8
2019-03-22T12:23:08.611Z,19.8
2019-03-22T12:24:08.664Z,19.6
2019-03-22T12:25:08.668Z,19.5
2019-03-22T12:26:08.892Z,19.2
2019-03-22T12:27:09.065Z,19
2019-03-22T12:28:08.834Z,19.3
2019-03-22T12:29:09.207Z,34
2019-03-22T12:30:09.806Z,19.5
2019-03-22T12:31:09.182Z,19.3
2019-03-22T12:32:09.530Z,19.2
2019-03-22T12:33:09.644Z,19.4
2019-03-22T12:34:09.656Z,19.5
2019-03-22T12:35:09.669Z,19.6
2019-03-22T12:36:09.289Z,19.6
2019-03-22T12:37:09.369Z,19.8
2019-03-22T12:38:09.385Z,19.8
2019-03-22T12:39:09.498Z,19.8
2019-03-22T12:40:09.530Z,19.8
2019-03-22T12:41:09.569Z,19.6
2019-03-22T12:42:09.644Z,19.6
2019-03-22T12:43:09.691Z,19.7
2019-03-22T12:44:09.844Z,19.8
2019-03-22T12:45:09.818Z,19.7
2019-03-22T12:46:09.898Z,19.6
2019-03-22T12:47:09.968Z,19.6
2019-03-22T12:48:09.985Z,19.7
2019-03-22T12:49:10.047Z,19.5
2019-03-22T12:50:10.107Z,19.5
2019-03-22T12:51:10.214Z,19.7
2019-03-22T12:52:10.255Z,20.1
2019-03-22T12:53:10.302Z,20
2019-03-22T12:54:10.378Z,20
2019-03-22T12:55:10.427Z,27.2
2019-03-22T12:56:10.486Z,19.7
2019-03-22T12:57:10.554Z,19.6
2019-03-22T12:58:10.588Z,19.5
2019-03-22T12:59:10.641Z,19.6
2019-03-22T13:00:10.686Z,27
2019-03-22T13:01:10.827Z,34.3
2019-03-22T13:02:10.835Z,20.1
2019-03-22T13:03:10.914Z,20.4
2019-03-22T13:04:10.956Z,20.6
2019-03-22T13:05:10.995Z,20.5
2019-03-22T13:06:11.046Z,20.1
2019-03-22T13:07:11.056Z,19.9
2019-03-22T13:08:11.149Z,19.8
2019-03-22T13:09:11.249Z,19.9
2019-03-22T13:10:11.306Z,19.8
2019-03-22T13:11:11.616Z,19.8
2019-03-22T13:12:11.378Z,19.8
2019-03-22T13:13:11.465Z,20.1
2019-03-22T13:14:11.484Z,27.2
2019-03-22T13:15:11.585Z,20
2019-03-22T13:16:11.676Z,20
2019-03-22T13:17:11.702Z,19.8
2019-03-22T13:18:11.793Z,19.7
2019-03-22T13:19:12.045Z,19.9
2019-03-22T13:20:11.954Z,19.8
2019-03-22T13:21:11.908Z,20
2019-03-22T13:22:12.128Z,20.2
2019-03-22T13:23:12.127Z,20.3
2019-03-22T13:24:12.118Z,20.4
2019-03-22T13:25:12.155Z,20.3
2019-03-22T13:26:12.263Z,20.3
2019-03-22T13:27:12.266Z,20.1
2019-03-22T13:28:12.330Z,20.1
2019-03-22T13:29:12.371Z,20
2019-03-22T13:30:12.447Z,19.9
2019-03-22T13:31:12.539Z,19.9
2019-03-22T13:32:12.854Z,20
2019-03-22T13:33:12.601Z,20
2019-03-22T13:34:12.729Z,19.8
2019-03-22T13:35:12.704Z,20.1
2019-03-22T13:36:12.840Z,20.2
2019-03-22T13:37:12.825Z,20.3
2019-03-22T13:38:12.875Z,20.2
2019-03-22T13:39:12.977Z,20.4
2019-03-22T13:40:13.003Z,20.5
2019-03-22T13:41:13.135Z,20.5